createdAt,value
2022-08-28T00:02:05.543Z,12.20
2022-08-28T00:04:51.357Z,12.52
2022-08-28T00:07:36.886Z,12.95
2022-08-28T00:10:24.081Z,12.75
2022-08-28T00:13:15.478Z,12.85
2022-08-28T00:16:01.359Z,11.90
2022-08-28T00:18:47.192Z,11.68
2022-08-28T00:21:33.844Z,12.63
2022-08-28T00:24:19.447Z,12.32
2022-08-28T00:27:23.366Z,13.00
2022-08-28T00:30:09.152Z,13.50
2022-08-28T00:32:58.375Z,13.45
2022-08-28T00:35:46.608Z,13.88
2022-08-28T00:38:32.282Z,13.40
2022-08-28T00:41:17.886Z,13.30
2022-08-28T00:44:22.719Z,13.38
2022-08-28T00:47:08.550Z,13.07
2022-08-28T00:49:55.948Z,15.10
2022-08-28T00:52:41.659Z,13.77
2022-08-28T00:55:28.444Z,12.98
2022-08-28T00:58:14.196Z,13.75
2022-08-28T01:01:00.514Z,13.13
2022-08-28T01:03:47.170Z,13.60
2022-08-28T01:06:36.931Z,13.75
2022-08-28T01:09:26.783Z,13.73
2022-08-28T01:12:21.206Z,13.90
2022-08-28T01:15:11.802Z,13.82
2022-08-28T01:18:07.854Z,14.43
2022-08-28T01:21:09.336Z,15.30
2022-08-28T01:24:14.653Z,13.80
2022-08-28T01:26:59.832Z,13.75
2022-08-28T01:29:47.965Z,13.40
2022-08-28T01:32:40.718Z,13.25
2022-08-28T01:35:32.403Z,14.27
2022-08-28T01:38:20.050Z,15.23
2022-08-28T01:41:05.974Z,14.23
2022-08-28T01:43:53.709Z,15.60
2022-08-28T01:46:42.419Z,13.77
2022-08-28T01:49:29.396Z,14.40
2022-08-28T01:52:15.342Z,15.65
2022-08-28T01:55:01.362Z,15.38
2022-08-28T01:57:53.759Z,15.88
2022-08-28T02:00:39.920Z,15.05
2022-08-28T02:03:25.726Z,14.77
2022-08-28T02:06:12.050Z,14.68
2022-08-28T02:08:58.354Z,15.23
2022-08-28T02:11:44.365Z,15.30
2022-08-28T02:14:32.592Z,15.35
2022-08-28T02:17:18.399Z,16.10
2022-08-28T02:20:05.750Z,15.60
2022-08-28T02:22:51.777Z,16.17
2022-08-28T02:25:37.232Z,15.70
2022-08-28T02:28:22.752Z,15.90
2022-08-28T02:31:09.278Z,16.25
2022-08-28T02:33:55.813Z,16.00
2022-08-28T02:36:42.266Z,17.30
2022-08-28T02:39:28.090Z,16.10
2022-08-28T02:42:13.719Z,15.98
2022-08-28T02:45:00.936Z,15.50
2022-08-28T02:47:47.437Z,16.42
2022-08-28T02:50:33.145Z,16.25
2022-08-28T02:53:18.399Z,15.98
2022-08-28T02:56:04.838Z,15.88
2022-08-28T02:58:50.877Z,16.98
2022-08-28T03:01:36.792Z,16.10
2022-08-28T03:04:22.900Z,16.13
2022-08-28T03:07:09.962Z,17.25
2022-08-28T03:09:56.985Z,17.00
2022-08-28T03:12:42.972Z,17.20
2022-08-28T03:15:28.852Z,17.08
2022-08-28T03:18:15.375Z,16.35
2022-08-28T03:21:02.088Z,15.85
2022-08-28T03:23:47.703Z,16.67
2022-08-28T03:26:33.764Z,16.02
2022-08-28T03:29:20.771Z,15.93
2022-08-28T03:32:06.373Z,15.80
2022-08-28T03:34:51.896Z,16.48
2022-08-28T03:37:37.490Z,16.67
2022-08-28T03:40:23.165Z,16.77
2022-08-28T03:43:16.543Z,16.38
2022-08-28T03:46:04.897Z,16.38
2022-08-28T03:48:51.652Z,16.25
2022-08-28T03:51:38.310Z,17.55
2022-08-28T03:54:25.074Z,16.67
2022-08-28T03:57:10.806Z,17.25
2022-08-28T03:59:56.307Z,17.55
2022-08-28T04:02:43.135Z,17.55
2022-08-28T04:05:29.090Z,16.40
2022-08-28T04:08:17.461Z,16.33
2022-08-28T04:11:03.730Z,16.95
2022-08-28T04:13:49.069Z,17.30
2022-08-28T04:16:35.353Z,17.15
2022-08-28T04:19:21.605Z,16.98
2022-08-28T04:22:08.290Z,17.33
2022-08-28T04:24:54.524Z,17.98
2022-08-28T04:27:40.748Z,16.90
2022-08-28T04:30:26.475Z,16.52
2022-08-28T04:33:11.733Z,18.27
2022-08-28T04:35:57.591Z,17.67
2022-08-28T04:38:44.223Z,18.17
2022-08-28T04:41:30.342Z,17.40
2022-08-28T04:44:16.574Z,19.05
2022-08-28T04:47:01.819Z,18.88
2022-08-28T04:49:47.315Z,17.30
2022-08-28T04:52:32.769Z,17.77
2022-08-28T04:55:18.463Z,17.45
2022-08-28T04:58:24.164Z,16.85
2022-08-28T05:01:13.713Z,16.95
2022-08-28T05:04:02.185Z,18.05
2022-08-28T05:06:48.184Z,17.00
2022-08-28T05:09:34.866Z,17.27
2022-08-28T05:12:20.759Z,18.02
2022-08-28T05:15:06.608Z,16.80
2022-08-28T05:17:51.907Z,17.60
2022-08-28T05:20:39.144Z,18.77
2022-08-28T05:23:25.783Z,18.48
2022-08-28T05:26:16.209Z,18.10
2022-08-28T05:31:47.359Z,17.52
2022-08-28T05:34:33.327Z,17.05
2022-08-28T05:37:19.767Z,16.85
2022-08-28T05:40:06.192Z,17.52
2022-08-28T05:42:52.632Z,16.80
2022-08-28T05:45:38.113Z,18.88
2022-08-28T05:48:24.078Z,17.35
2022-08-28T05:51:15.323Z,18.40
2022-08-28T05:54:02.094Z,18.13
2022-08-28T05:56:47.898Z,16.75
2022-08-28T05:59:33.657Z,17.45
2022-08-28T06:02:19.241Z,17.55
2022-08-28T06:05:05.346Z,17.00
2022-08-28T06:07:52.402Z,18.83
2022-08-28T06:10:44.650Z,18.15
2022-08-28T06:13:32.449Z,17.38
2022-08-28T06:16:20.124Z,19.02
2022-08-28T06:19:06.410Z,18.08
2022-08-28T06:21:55.555Z,17.83
2022-08-28T06:24:41.394Z,18.17
2022-08-28T06:27:26.735Z,18.30
2022-08-28T06:30:12.502Z,16.92
2022-08-28T06:32:58.060Z,17.30
2022-08-28T06:35:45.528Z,17.35
2022-08-28T06:38:31.521Z,17.15
2022-08-28T06:41:17.175Z,18.30
2022-08-28T06:44:02.770Z,17.70
2022-08-28T06:46:50.603Z,16.25
2022-08-28T06:49:36.123Z,17.92
2022-08-28T06:52:21.555Z,17.70
2022-08-28T06:55:07.846Z,17.17
2022-08-28T06:57:53.589Z,16.80
2022-08-28T07:00:40.385Z,17.20
2022-08-28T07:03:26.104Z,17.95
2022-08-28T07:06:13.624Z,17.40
2022-08-28T07:08:59.138Z,17.95
2022-08-28T07:11:48.959Z,17.83
2022-08-28T07:14:34.111Z,17.95
2022-08-28T07:17:19.713Z,18.02
2022-08-28T07:20:06.971Z,17.88
2022-08-28T07:22:54.080Z,17.98
2022-08-28T07:25:45.263Z,17.08
2022-08-28T07:28:30.990Z,17.98
2022-08-28T07:31:20.817Z,16.27
2022-08-28T07:34:06.281Z,17.52
2022-08-28T07:36:52.351Z,17.08
2022-08-28T07:39:38.048Z,17.08
2022-08-28T07:42:41.997Z,16.50
2022-08-28T07:45:29.912Z,15.70
2022-08-28T07:48:16.580Z,15.10
2022-08-28T07:51:08.197Z,16.13
2022-08-28T07:53:57.196Z,16.63
2022-08-28T07:56:43.492Z,16.42
2022-08-28T07:59:36.664Z,15.55
2022-08-28T08:02:22.326Z,16.05
2022-08-28T08:05:10.435Z,15.20
2022-08-28T08:07:59.574Z,14.95
2022-08-28T08:10:45.071Z,15.00
2022-08-28T08:13:33.279Z,15.85
2022-08-28T08:16:21.587Z,16.98
2022-08-28T08:19:09.817Z,15.93
2022-08-28T08:21:56.322Z,16.38
2022-08-28T08:24:42.760Z,16.17
2022-08-28T08:27:28.596Z,16.30
2022-08-28T08:30:14.457Z,17.10
2022-08-28T08:33:00.107Z,17.10
2022-08-28T08:35:45.474Z,17.40
2022-08-28T08:38:32.714Z,16.85
2022-08-28T08:41:43.436Z,16.52
2022-08-28T08:44:47.517Z,16.45
2022-08-28T08:47:52.288Z,17.15
2022-08-28T08:50:37.671Z,18.10
2022-08-28T08:53:44.541Z,17.23
2022-08-28T08:56:34.641Z,15.45
2022-08-28T08:59:25.949Z,17.40
2022-08-28T09:02:15.261Z,17.63
2022-08-28T09:05:09.329Z,18.17
2022-08-28T09:08:02.597Z,16.08
2022-08-28T09:11:00.023Z,17.17
2022-08-28T09:14:11.177Z,16.63
2022-08-28T09:16:57.058Z,15.30
2022-08-28T09:19:42.761Z,15.45
2022-08-28T09:22:28.209Z,14.60
2022-08-28T09:26:02.767Z,14.77
2022-08-28T09:29:04.008Z,14.52
2022-08-28T09:31:49.317Z,14.63
2022-08-28T09:34:38.794Z,13.02
2022-08-28T09:37:32.038Z,13.48
2022-08-28T09:40:20.011Z,13.90
2022-08-28T09:43:27.871Z,12.45
2022-08-28T09:46:29.245Z,12.82
2022-08-28T09:49:29.430Z,13.10
2022-08-28T09:52:24.606Z,12.70
2022-08-28T09:55:19.903Z,13.50
2022-08-28T09:58:06.609Z,14.45
2022-08-28T10:01:24.419Z,14.85
2022-08-28T10:04:31.836Z,15.00
2022-08-28T10:07:35.427Z,14.60
2022-08-28T10:10:29.784Z,14.70
2022-08-28T10:13:23.779Z,15.27
2022-08-28T10:16:32.392Z,16.08
2022-08-28T10:20:01.209Z,15.63
2022-08-28T10:23:07.878Z,14.13
2022-08-28T10:26:02.973Z,14.52
2022-08-28T10:29:30.496Z,13.48
2022-08-28T10:32:34.645Z,12.90
2022-08-28T10:35:42.091Z,11.63
2022-08-28T10:38:36.397Z,10.77
2022-08-28T10:41:27.044Z,10.75
2022-08-28T10:44:20.051Z,10.50
2022-08-28T10:47:06.348Z,10.52
2022-08-28T10:49:58.483Z,10.63
2022-08-28T10:52:50.198Z,11.02
2022-08-28T10:55:56.934Z,10.80
2022-08-28T10:58:42.554Z,10.52
2022-08-28T11:01:35.562Z,10.65
2022-08-28T11:04:25.679Z,10.30
2022-08-28T11:07:15.137Z,10.25
2022-08-28T11:10:20.979Z,9.20
2022-08-28T11:13:10.279Z,10.30
2022-08-28T11:15:56.090Z,9.75
2022-08-28T11:19:06.404Z,9.75
2022-08-28T11:22:01.976Z,10.57
2022-08-28T11:25:16.954Z,9.73
2022-08-28T11:28:17.836Z,10.35
2022-08-28T11:31:04.613Z,9.90
2022-08-28T11:33:52.871Z,9.98
2022-08-28T11:36:38.526Z,9.52
2022-08-28T11:39:24.268Z,9.90
2022-08-28T11:42:09.497Z,9.38
2022-08-28T11:44:55.397Z,9.48
2022-08-28T11:47:48.166Z,10.05
2022-08-28T11:51:02.206Z,8.95
2022-08-28T11:54:25.450Z,8.40
2022-08-28T11:57:48.473Z,7.68
2022-08-28T12:01:01.535Z,8.45
2022-08-28T12:04:08.071Z,8.55
2022-08-28T12:07:13.966Z,7.45
2022-08-28T12:10:04.252Z,8.63
2022-08-28T12:12:59.603Z,7.65
2022-08-28T12:16:02.029Z,7.78
2022-08-28T12:18:47.332Z,8.32
2022-08-28T12:21:38.894Z,7.32
2022-08-28T12:24:24.816Z,7.68
2022-08-28T12:27:10.989Z,7.72
2022-08-28T12:29:59.664Z,7.28
2022-08-28T12:32:55.930Z,7.43
2022-08-28T12:35:43.822Z,6.57
2022-08-28T12:38:32.738Z,6.55
2022-08-28T12:41:18.911Z,7.13
2022-08-28T12:44:10.584Z,6.15
2022-08-28T12:46:57.350Z,6.85
2022-08-28T12:49:43.450Z,6.68
2022-08-28T12:52:28.666Z,6.43
2022-08-28T12:55:14.391Z,6.65
2022-08-28T12:58:00.187Z,6.72
2022-08-28T13:00:55.029Z,6.38
2022-08-28T13:03:48.778Z,6.43
2022-08-28T13:06:37.268Z,6.95
2022-08-28T13:09:25.460Z,6.18
2022-08-28T13:12:34.859Z,6.00
2022-08-28T13:15:55.585Z,6.05
2022-08-28T13:19:10.685Z,6.32
2022-08-28T13:22:09.244Z,6.10
2022-08-28T13:24:59.914Z,5.57
2022-08-28T13:27:45.484Z,5.95
2022-08-28T13:30:33.803Z,5.53
2022-08-28T13:33:24.902Z,5.78
2022-08-28T13:36:22.015Z,6.47
2022-08-28T13:39:07.606Z,6.60
2022-08-28T13:41:56.539Z,6.18
2022-08-28T13:44:53.710Z,5.78
2022-08-28T13:47:39.678Z,5.97
2022-08-28T13:50:27.256Z,6.50
2022-08-28T13:53:13.297Z,6.20
2022-08-28T13:56:00.173Z,6.28
2022-08-28T13:58:52.815Z,5.93
2022-08-28T14:02:03.238Z,6.38
2022-08-28T14:04:48.763Z,6.95
2022-08-28T14:07:34.440Z,6.28
2022-08-28T14:10:19.793Z,6.57
2022-08-28T14:13:05.442Z,6.90
2022-08-28T14:15:50.797Z,7.35
2022-08-28T14:18:36.636Z,6.78
2022-08-28T14:21:24.370Z,7.13
2022-08-28T14:24:10.231Z,6.97
2022-08-28T14:26:56.196Z,6.45
2022-08-28T14:29:41.606Z,6.60
2022-08-28T14:32:27.403Z,7.43
2022-08-28T14:35:12.701Z,6.93
2022-08-28T14:37:58.136Z,6.38
2022-08-28T14:40:44.712Z,6.63
2022-08-28T14:43:31.507Z,6.70
2022-08-28T14:46:23.239Z,6.57
2022-08-28T14:49:11.380Z,6.97
2022-08-28T14:51:57.549Z,6.60
2022-08-28T14:54:43.378Z,6.82
2022-08-28T14:57:29.314Z,6.45
2022-08-28T15:00:16.351Z,6.72
2022-08-28T15:03:02.197Z,6.70
2022-08-28T15:05:47.670Z,6.63
2022-08-28T15:08:34.617Z,6.85
2022-08-28T15:11:23.736Z,6.80
2022-08-28T15:14:09.496Z,7.20
2022-08-28T15:16:54.936Z,7.10
2022-08-28T15:19:40.302Z,7.45
2022-08-28T15:22:27.086Z,7.57
2022-08-28T15:25:13.143Z,7.60
2022-08-28T15:27:58.583Z,7.22
2022-08-28T15:30:46.478Z,7.53
2022-08-28T15:33:32.327Z,7.38
2022-08-28T15:36:19.356Z,6.63
2022-08-28T15:39:25.456Z,7.80
2022-08-28T15:42:11.434Z,7.03
2022-08-28T15:44:56.996Z,7.35
2022-08-28T15:47:43.947Z,6.80
2022-08-28T15:50:29.482Z,7.05
2022-08-28T15:53:15.335Z,7.20
2022-08-28T15:56:03.921Z,6.82
2022-08-28T15:58:49.753Z,7.38
2022-08-28T16:01:35.053Z,7.53
2022-08-28T16:04:20.644Z,7.97
2022-08-28T16:07:07.117Z,7.15
2022-08-28T16:09:52.804Z,7.22
2022-08-28T16:12:40.003Z,7.25
2022-08-28T16:15:25.639Z,7.63
2022-08-28T16:18:13.582Z,7.10
2022-08-28T16:21:04.070Z,7.60
2022-08-28T16:23:51.758Z,7.65
2022-08-28T16:26:37.225Z,7.25
2022-08-28T16:29:22.796Z,7.03
2022-08-28T16:32:08.201Z,7.35
2022-08-28T16:34:54.335Z,7.53
2022-08-28T16:37:40.219Z,7.18
2022-08-28T16:40:25.715Z,7.20
2022-08-28T16:43:11.613Z,7.25
2022-08-28T16:45:57.126Z,6.38
2022-08-28T16:48:44.168Z,7.18
2022-08-28T16:51:30.155Z,6.72
2022-08-28T16:54:18.168Z,6.57
2022-08-28T16:57:04.046Z,7.28
2022-08-28T16:59:53.038Z,6.65
2022-08-28T17:02:39.321Z,6.57
2022-08-28T17:05:25.380Z,6.90
2022-08-28T17:08:10.861Z,6.78
2022-08-28T17:10:56.694Z,6.47
2022-08-28T17:13:42.916Z,7.15
2022-08-28T17:16:32.956Z,6.93
2022-08-28T17:19:20.816Z,6.80
2022-08-28T17:22:27.314Z,6.78
2022-08-28T17:25:13.677Z,6.75
2022-08-28T17:27:59.819Z,7.25
2022-08-28T17:30:45.810Z,7.10
2022-08-28T17:33:31.199Z,7.10
2022-08-28T17:36:32.351Z,6.20
2022-08-28T17:39:19.771Z,7.93
2022-08-28T17:42:05.242Z,6.85
2022-08-28T17:44:51.108Z,6.50
2022-08-28T17:47:36.966Z,7.22
2022-08-28T17:50:23.067Z,6.60
2022-08-28T17:53:08.862Z,6.60
2022-08-28T17:55:54.753Z,7.10
2022-08-28T17:58:40.216Z,6.60
2022-08-28T18:01:27.183Z,6.68
2022-08-28T18:04:17.892Z,6.43
2022-08-28T18:07:06.047Z,6.80
2022-08-28T18:09:51.438Z,7.00
2022-08-28T18:12:37.751Z,6.78
2022-08-28T18:15:23.258Z,6.38
2022-08-28T18:18:10.303Z,7.03
2022-08-28T18:20:56.025Z,7.18
2022-08-28T18:23:41.604Z,6.55
2022-08-28T18:26:26.991Z,6.82
2022-08-28T18:29:12.530Z,6.78
2022-08-28T18:31:58.180Z,7.20
2022-08-28T18:34:43.668Z,7.10
2022-08-28T18:37:29.089Z,7.05
2022-08-28T18:40:15.833Z,6.35
2022-08-28T18:43:01.736Z,6.55
2022-08-28T18:45:47.487Z,6.82
2022-08-28T18:48:33.170Z,6.78
2022-08-28T18:51:21.649Z,6.57
2022-08-28T18:54:07.673Z,7.82
2022-08-28T18:56:59.602Z,7.40
2022-08-28T18:59:49.111Z,6.70
2022-08-28T19:02:37.121Z,6.45
2022-08-28T19:05:26.902Z,6.93
2022-08-28T19:08:14.169Z,6.80
2022-08-28T19:11:00.141Z,7.88
2022-08-28T19:13:45.734Z,8.38
2022-08-28T19:16:32.149Z,7.30
2022-08-28T19:19:17.638Z,7.20
2022-08-28T19:22:03.713Z,6.82
2022-08-28T19:24:50.288Z,7.00
2022-08-28T19:27:36.193Z,7.38
2022-08-28T19:30:21.629Z,7.75
2022-08-28T19:33:07.679Z,7.55
2022-08-28T19:35:54.688Z,6.88
2022-08-28T19:38:40.883Z,7.45
2022-08-28T19:41:27.917Z,7.80
2022-08-28T19:44:13.858Z,7.00
2022-08-28T19:47:02.066Z,7.82
2022-08-28T19:49:47.640Z,6.72
2022-08-28T19:52:33.535Z,7.15
2022-08-28T19:55:23.729Z,7.43
2022-08-28T20:00:55.908Z,6.78
2022-08-28T20:03:41.261Z,7.47
2022-08-28T20:06:27.955Z,7.07
2022-08-28T20:09:13.684Z,8.43
2022-08-28T20:12:00.761Z,7.25
2022-08-28T20:14:46.988Z,7.38
2022-08-28T20:17:33.134Z,7.00
2022-08-28T20:20:20.481Z,7.07
2022-08-28T20:23:07.375Z,7.45
2022-08-28T20:25:52.870Z,6.53
2022-08-28T20:28:38.371Z,7.50
2022-08-28T20:31:24.448Z,7.43
2022-08-28T20:34:12.240Z,6.57
2022-08-28T20:36:57.973Z,7.50
2022-08-28T20:39:43.584Z,7.18
2022-08-28T20:42:31.713Z,7.03
2022-08-28T20:45:19.431Z,7.10
2022-08-28T20:48:04.758Z,7.38
2022-08-28T20:50:50.807Z,6.75
2022-08-28T20:53:41.217Z,7.60
2022-08-28T20:56:26.762Z,6.80
2022-08-28T20:59:12.545Z,6.95
2022-08-28T21:02:00.455Z,7.00
2022-08-28T21:04:47.624Z,6.45
2022-08-28T21:07:34.763Z,6.60
2022-08-28T21:10:20.604Z,7.30
2022-08-28T21:13:07.084Z,6.95
2022-08-28T21:15:52.551Z,7.03
2022-08-28T21:18:45.517Z,7.28
2022-08-28T21:21:44.000Z,7.10
2022-08-28T21:24:29.605Z,6.53
2022-08-28T21:27:15.149Z,6.80
2022-08-28T21:30:06.469Z,6.82
2022-08-28T21:32:52.197Z,7.30
2022-08-28T21:35:40.946Z,6.68
2022-08-28T21:38:26.492Z,7.25
2022-08-28T21:41:14.979Z,7.40
2022-08-28T21:44:00.616Z,6.47
2022-08-28T21:46:46.182Z,7.20
2022-08-28T21:49:31.649Z,6.85
2022-08-28T21:52:18.509Z,7.10
2022-08-28T21:55:09.235Z,7.03
2022-08-28T21:57:54.431Z,7.00
2022-08-28T22:00:40.129Z,6.63
2022-08-28T22:03:26.986Z,8.38
2022-08-28T22:06:15.500Z,7.15
2022-08-28T22:09:01.107Z,7.45
2022-08-28T22:11:46.404Z,7.03
2022-08-28T22:14:32.537Z,7.35
2022-08-28T22:17:18.117Z,7.32
2022-08-28T22:20:04.709Z,7.25
2022-08-28T22:23:08.702Z,7.57
2022-08-28T22:25:54.374Z,6.95
2022-08-28T22:28:39.648Z,7.13
2022-08-28T22:31:25.301Z,6.60
2022-08-28T22:34:10.724Z,7.57
2022-08-28T22:36:56.354Z,7.30
2022-08-28T22:39:42.628Z,7.05
2022-08-28T22:42:27.909Z,7.35
2022-08-28T22:45:13.558Z,7.57
2022-08-28T22:47:59.444Z,6.93
2022-08-28T22:50:47.247Z,7.00
2022-08-28T22:53:33.334Z,7.65
2022-08-28T22:56:19.073Z,8.00
2022-08-28T22:59:04.592Z,8.43
2022-08-28T23:01:49.942Z,7.65
2022-08-28T23:04:35.601Z,7.43
2022-08-28T23:07:21.146Z,7.65
2022-08-28T23:10:08.287Z,7.68
2022-08-28T23:12:53.879Z,7.85
2022-08-28T23:15:39.515Z,7.68
2022-08-28T23:18:26.001Z,6.78
2022-08-28T23:21:13.339Z,7.53
2022-08-28T23:23:58.861Z,7.53
2022-08-28T23:26:45.069Z,7.45
2022-08-28T23:29:31.910Z,7.43
2022-08-28T23:32:17.534Z,7.97
2022-08-28T23:35:07.282Z,7.90
2022-08-28T23:37:53.236Z,7.63
2022-08-28T23:40:39.267Z,7.90
2022-08-28T23:43:24.709Z,7.38
2022-08-28T23:46:14.206Z,8.35
2022-08-28T23:49:00.978Z,8.45
2022-08-28T23:51:47.768Z,8.52
2022-08-28T23:54:37.732Z,8.07
2022-08-28T23:57:23.355Z,8.05
